Time;durP1;ratioP1;P1;durP2;ratioP2;P2;SDS_P1;SDS_P2;PMS_P1;PMS_P2;Temp;Humidity;BMP_temperature;BMP_pressure;BME280_temperature;BME280_humidity;BME280_pressure;Samples;Min_cycle;Max_cycle;Signal;HPM_P1;HPM_P2
2021/09/27 00:02:07;;;;;;;;;8.00;8.00;;;;;26.06;45.58;101276.88;5074397;28;45537;-67
2021/09/27 00:04:33;;;;;;;;;7.00;6.00;;;;;26.10;45.77;101282.63;5071885;28;47243;-67
2021/09/27 00:06:59;;;;;;;;;8.75;8.00;;;;;26.01;45.73;101260.66;5073088;27;45445;-67
2021/09/27 00:09:32;;;;;;;;;5.75;5.75;;;;;26.12;45.98;101288.59;5073675;27;45477;-68
2021/09/27 00:12:02;;;;;;;;;8.75;6.75;;;;;26.09;45.73;101275.66;5073868;27;45532;-67
2021/09/27 00:14:28;;;;;;;;;6.00;6.00;;;;;26.13;46.00;101276.06;5073935;27;46588;-67
2021/09/27 00:16:53;;;;;;;;;8.25;6.75;;;;;26.12;45.77;101272.59;5072826;28;45428;-67
2021/09/27 00:19:19;;;;;;;;;8.75;8.75;;;;;26.13;45.68;101276.91;5073267;27;45343;-67
2021/09/27 00:21:44;;;;;;;;;7.50;7.50;;;;;26.07;45.79;101259.03;5073267;27;45484;-67
2021/09/27 00:24:10;;;;;;;;;8.25;7.00;;;;;26.13;45.63;101270.72;5073390;27;46165;-67
2021/09/27 00:26:35;;;;;;;;;6.00;6.00;;;;;26.13;45.87;101271.56;5073536;27;45222;-68
2021/09/27 00:29:01;;;;;;;;;5.25;5.25;;;;;26.14;45.74;101261.72;5075395;27;45312;-67
2021/09/27 00:31:26;;;;;;;;;8.00;7.00;;;;;26.13;45.56;101260.91;5073296;27;45473;-67
2021/09/27 00:33:52;;;;;;;;;7.75;7.75;;;;;26.12;45.80;101251.25;5073240;27;46850;-67
2021/09/27 00:36:17;;;;;;;;;7.00;7.00;;;;;26.12;45.75;101245.09;5072941;27;45512;-67
2021/09/27 00:38:43;;;;;;;;;8.00;8.00;;;;;26.13;46.21;101254.72;5073692;27;45667;-68
2021/09/27 00:41:14;;;;;;;;;7.50;7.50;;;;;26.12;45.88;101253.94;5075231;27;45446;-67
2021/09/27 00:43:41;;;;;;;;;6.25;5.75;;;;;26.12;46.12;101255.78;5071756;27;46354;-67
2021/09/27 00:46:10;;;;;;;;;6.00;6.00;;;;;26.10;45.65;101244.50;5075940;27;45346;-67
2021/09/27 00:48:36;;;;;;;;;6.50;6.50;;;;;26.09;46.03;101253.50;5076725;27;45568;-67
2021/09/27 00:51:09;;;;;;;;;7.00;7.00;;;;;26.11;45.92;101259.44;5076384;27;45440;-67
2021/09/27 00:53:57;;;;;;;;;7.75;6.50;;;;;26.10;45.97;101245.28;5076837;27;46409;-67
2021/09/27 00:56:26;;;;;;;;;9.50;8.00;;;;;26.10;45.81;101245.28;5068352;28;45347;-67
2021/09/27 00:58:53;;;;;;;;;6.50;6.50;;;;;26.09;46.17;101249.00;5077234;28;45260;-67
2021/09/27 01:01:19;;;;;;;;;6.00;6.00;;;;;26.06;46.03;101231.53;5073313;28;45449;-67
2021/09/27 01:03:45;;;;;;;;;6.00;6.00;;;;;26.09;45.85;101240.16;5076226;27;47188;-67
2021/09/27 01:06:35;;;;;;;;;8.25;6.50;;;;;26.12;45.70;101237.94;5088707;27;45342;-67
2021/09/27 01:09:34;;;;;;;;;6.75;6.75;;;;;26.11;45.80;101230.13;5061593;28;45289;-67
2021/09/27 01:12:33;;;;;;;;;7.50;7.00;;;;;26.12;45.54;101234.44;5061428;28;45666;-67
2021/09/27 01:15:17;;;;;;;;;6.25;6.25;;;;;26.10;45.74;101229.28;5061162;28;45575;-67
2021/09/27 01:17:57;;;;;;;;;7.75;5.75;;;;;26.12;45.72;101224.59;5076166;27;45328;-67
2021/09/27 01:20:51;;;;;;;;;5.25;5.25;;;;;26.12;45.45;101219.28;5073651;28;45461;-67
2021/09/27 01:23:41;;;;;;;;;5.25;4.25;;;;;26.13;45.65;101218.22;5073780;28;45422;-67
2021/09/27 01:26:26;;;;;;;;;5.50;5.50;;;;;26.13;45.79;101220.06;5076376;28;45380;-67
2021/09/27 01:29:22;;;;;;;;;7.50;7.50;;;;;26.12;45.70;101219.28;5076216;28;45465;-67
2021/09/27 01:32:02;;;;;;;;;6.75;6.00;;;;;26.12;45.70;101207.78;5076304;28;45293;-67
2021/09/27 01:34:45;;;;;;;;;5.50;5.50;;;;;26.11;45.52;101211.44;5073600;27;45412;-67
2021/09/27 01:37:23;;;;;;;;;7.00;7.00;;;;;26.12;45.79;101216.59;5075048;27;46578;-67
2021/09/27 01:40:11;;;;;;;;;6.25;6.25;;;;;26.12;45.90;101205.09;5075713;27;45310;-67
2021/09/27 01:42:48;;;;;;;;;8.25;7.25;;;;;26.12;45.53;101213.09;5075603;28;45624;-68
2021/09/27 01:45:20;;;;;;;;;6.00;6.00;;;;;26.12;45.50;101194.44;5075840;28;45570;-68
2021/09/27 01:47:55;;;;;;;;;6.00;6.00;;;;;26.06;45.43;101182.72;5075227;27;45327;-67
2021/09/27 01:50:27;;;;;;;;;7.50;7.50;;;;;26.12;46.06;101189.09;5073524;28;45374;-67
2021/09/27 01:53:16;;;;;;;;;8.75;7.75;;;;;26.10;46.02;101178.63;5076419;28;45642;-67
2021/09/27 01:55:56;;;;;;;;;5.25;5.25;;;;;26.10;45.80;101181.28;5074868;27;45240;-67
2021/09/27 01:59:01;;;;;;;;;6.25;6.00;;;;;26.09;45.85;101177.00;5082844;27;47998;-67
2021/09/27 02:01:51;;;;;;;;;7.50;7.50;;;;;26.09;45.68;101179.66;5012975;28;45366;-67
2021/09/27 02:04:53;;;;;;;;;6.75;6.75;;;;;26.06;45.82;101172.06;5012728;28;45302;-67
2021/09/27 02:07:22;;;;;;;;;7.00;6.50;;;;;26.10;45.75;101177.81;5012907;28;45567;-67
2021/09/27 02:09:57;;;;;;;;;6.00;5.25;;;;;26.09;45.85;101171.66;5011228;28;46615;-67
2021/09/27 02:12:30;;;;;;;;;7.00;7.00;;;;;26.09;45.47;101165.50;5012877;28;45386;-68
2021/09/27 02:15:11;;;;;;;;;6.75;5.50;;;;;26.10;45.58;101170.63;4998217;28;45539;-67
2021/09/27 02:17:44;;;;;;;;;7.50;6.25;;;;;26.06;45.23;101174.72;5012590;28;45325;-67
2021/09/27 02:20:31;;;;;;;;;6.00;6.00;;;;;26.10;45.85;101175.16;5014534;28;45357;-67
2021/09/27 02:22:59;;;;;;;;;8.00;7.75;;;;;26.10;46.01;101172.50;5013842;28;45501;-67
2021/09/27 02:25:32;;;;;;;;;5.50;5.50;;;;;26.05;45.82;101179.22;5012721;28;45504;-67
2021/09/27 02:28:02;;;;;;;;;5.25;5.25;;;;;26.09;45.77;101187.66;5012764;28;45370;-67
2021/09/27 02:30:40;;;;;;;;;6.00;6.00;;;;;26.07;45.86;101203.03;5012356;28;45641;-67
2021/09/27 02:33:22;;;;;;;;;7.50;7.50;;;;;26.05;45.65;101197.06;5012422;28;45600;-67
2021/09/27 02:35:57;;;;;;;;;8.00;5.75;;;;;26.11;46.00;101193.63;5012770;28;45370;-67
2021/09/27 02:38:42;;;;;;;;;6.00;6.00;;;;;26.12;45.98;101184.59;5028706;28;45486;-67
2021/09/27 02:41:21;;;;;;;;;6.00;6.00;;;;;26.10;45.60;101141.28;5075295;28;46278;-67
2021/09/27 02:43:47;;;;;;;;;6.50;5.75;;;;;26.07;45.92;101134.53;5074837;28;45437;-67
2021/09/27 02:46:13;;;;;;;;;7.75;7.00;;;;;26.10;45.71;101153.84;5074255;27;45564;-67
2021/09/27 02:48:41;;;;;;;;;5.00;5.00;;;;;26.11;45.67;101160.78;5074913;27;45349;-67
2021/09/27 02:51:10;;;;;;;;;5.75;5.75;;;;;26.12;45.58;101159.78;5072734;27;47021;-67
2021/09/27 02:53:36;;;;;;;;;6.75;6.75;;;;;26.12;45.85;101151.78;5074504;27;45440;-67
2021/09/27 02:56:23;;;;;;;;;5.75;5.75;;;;;26.10;45.79;101151.97;5076555;28;45416;-67
2021/09/27 02:59:00;;;;;;;;;6.75;6.00;;;;;26.12;45.61;101157.13;5073376;28;45391;-67
2021/09/27 03:01:39;;;;;;;;;6.00;6.00;;;;;26.12;45.42;101157.13;5073702;27;46226;-67
2021/09/27 03:04:12;;;;;;;;;5.00;5.00;;;;;26.13;45.60;101156.06;5074486;27;45501;-67
2021/09/27 03:07:15;;;;;;;;;6.50;6.50;;;;;26.10;45.87;101149.28;5074379;27;45282;-67
2021/09/27 03:10:01;;;;;;;;;5.00;5.00;;;;;26.10;45.59;101151.16;4995491;28;45422;-67
2021/09/27 03:12:53;;;;;;;;;3.25;3.25;;;;;26.09;45.37;101147.66;5007248;28;47199;-67
2021/09/27 03:15:57;;;;;;;;;6.00;5.75;;;;;26.09;45.66;101137.00;5006669;28;45439;-66
2021/09/27 03:18:32;;;;;;;;;6.00;6.00;;;;;26.10;45.49;101135.16;4973673;28;45491;-67
2021/09/27 03:21:06;;;;;;;;;5.75;5.75;;;;;26.09;45.45;101130.84;4959086;28;45581;-67
2021/09/27 03:24:06;;;;;;;;;5.00;5.00;;;;;26.09;45.65;101118.34;4973428;28;45548;-67
2021/09/27 03:27:01;;;;;;;;;6.25;6.25;;;;;26.00;45.94;101099.03;4971288;28;45369;-67
2021/09/27 03:29:54;;;;;;;;;6.75;6.75;;;;;26.09;45.56;101113.00;4970480;28;45408;-67
2021/09/27 03:32:25;;;;;;;;;4.50;4.50;;;;;26.09;45.57;101114.84;4975637;28;45348;-67
2021/09/27 03:35:09;;;;;;;;;6.00;6.00;;;;;26.09;45.23;101101.50;4972577;28;46251;-67
2021/09/27 03:37:52;;;;;;;;;8.00;7.00;;;;;26.09;45.56;101102.34;4973559;28;45365;-67
2021/09/27 03:40:36;;;;;;;;;5.75;5.75;;;;;26.09;45.28;101099.69;4973645;28;45422;-67
2021/09/27 03:43:12;;;;;;;;;7.00;5.75;;;;;26.09;45.64;101096.19;4973108;28;45331;-67
2021/09/27 03:45:59;;;;;;;;;5.00;5.00;;;;;26.09;45.80;101099.69;4985344;28;45391;-67
2021/09/27 03:48:39;;;;;;;;;5.75;5.75;;;;;26.07;45.93;101105.19;5038874;28;45480;-68
2021/09/27 03:51:16;;;;;;;;;5.00;5.00;;;;;26.09;45.50;101101.50;5073975;27;45467;-67
2021/09/27 03:53:51;;;;;;;;;5.75;5.75;;;;;26.08;45.57;101100.69;5073997;27;45321;-68
2021/09/27 03:57:12;;;;;;;;;5.25;4.75;;;;;26.10;45.47;101108.50;5071049;28;46362;-68
2021/09/27 03:59:46;;;;;;;;;5.00;5.00;;;;;26.09;45.59;101109.50;5012020;28;45608;-67
2021/09/27 04:02:30;;;;;;;;;5.25;4.00;;;;;26.10;45.58;101095.19;5013157;28;45439;-67
2021/09/27 04:05:09;;;;;;;;;5.25;5.25;;;;;26.10;45.41;101079.97;5012316;28;45526;-67
2021/09/27 04:08:07;;;;;;;;;6.25;6.00;;;;;26.09;45.39;101083.69;5009774;28;45436;-67
2021/09/27 04:10:48;;;;;;;;;5.50;5.00;;;;;26.10;45.57;101100.50;5012240;28;45618;-67
2021/09/27 04:13:18;;;;;;;;;5.75;5.00;;;;;26.10;45.87;101103.16;5010676;28;45810;-67
2021/09/27 04:16:02;;;;;;;;;6.00;6.00;;;;;26.10;45.89;101108.50;5011003;28;45578;-67
2021/09/27 04:18:30;;;;;;;;;5.25;5.25;;;;;26.09;45.27;101109.50;5010397;28;45531;-67
2021/09/27 04:21:14;;;;;;;;;4.00;4.00;;;;;26.08;45.60;101108.69;5013760;28;45470;-67
2021/09/27 04:24:01;;;;;;;;;6.75;5.00;;;;;26.08;45.44;101095.34;5014558;28;45517;-68
2021/09/27 04:26:44;;;;;;;;;5.75;5.75;;;;;26.07;45.58;101083.88;5012782;28;45452;-67
2021/09/27 04:29:21;;;;;;;;;3.50;3.50;;;;;26.06;45.37;101095.56;5014921;28;47074;-67
2021/09/27 04:32:00;;;;;;;;;5.00;5.00;;;;;26.07;45.80;101093.72;5015428;28;45430;-67
2021/09/27 04:34:41;;;;;;;;;5.00;5.00;;;;;26.06;45.58;101078.75;5063884;28;45446;-67
2021/09/27 04:37:06;;;;;;;;;5.00;5.00;;;;;26.06;45.54;101079.56;5075119;27;45420;-67
2021/09/27 04:39:36;;;;;;;;;6.00;5.50;;;;;26.06;45.69;101074.25;5076346;27;45804;-67
2021/09/27 04:42:56;;;;;;;;;4.00;4.00;;;;;26.04;45.71;101062.97;5076689;27;45410;-67
2021/09/27 04:45:45;;;;;;;;;4.25;4.00;;;;;26.02;46.09;101062.31;5059818;28;45568;-67
2021/09/27 04:48:13;;;;;;;;;4.50;4.50;;;;;26.06;45.60;101060.91;5061912;28;45502;-67
2021/09/27 04:51:00;;;;;;;;;5.00;5.00;;;;;26.06;45.68;101055.56;5076405;27;46168;-67
2021/09/27 04:53:50;;;;;;;;;5.00;5.00;;;;;26.06;45.69;101063.56;5074615;28;45386;-68
2021/09/27 04:56:44;;;;;;;;;5.00;5.00;;;;;26.03;45.75;101058.66;5077743;28;45386;-67
2021/09/27 04:59:28;;;;;;;;;3.50;3.50;;;;;26.07;45.35;101069.72;5077310;28;45552;-67
2021/09/27 05:02:21;;;;;;;;;3.25;3.25;;;;;26.08;45.31;101071.34;5077052;28;46039;-67
2021/09/27 05:04:53;;;;;;;;;4.00;4.00;;;;;26.07;45.45;101069.72;5074983;28;45472;-67
2021/09/27 05:07:30;;;;;;;;;3.75;3.75;;;;;26.07;45.28;101067.88;5076197;27;45331;-68
2021/09/27 05:10:19;;;;;;;;;4.25;4.25;;;;;26.07;45.46;101073.19;5076618;27;45602;-67
2021/09/27 05:12:50;;;;;;;;;5.75;4.75;;;;;26.08;45.54;101071.34;5075784;27;46445;-67
2021/09/27 05:15:49;;;;;;;;;3.33;3.33;;;;;26.08;45.34;101087.34;5074634;27;45324;-67
2021/09/27 05:18:36;;;;;;;;;4.25;4.25;;;;;26.09;45.75;101072.19;5063562;28;45484;-67
2021/09/27 05:21:26;;;;;;;;;4.00;4.00;;;;;26.07;45.60;101064.41;5061385;28;45470;-67
2021/09/27 05:23:52;;;;;;;;;4.67;4.00;;;;;26.08;45.27;101058.03;5060052;28;46495;-68
2021/09/27 05:26:36;;;;;;;;;4.00;3.67;;;;;26.08;45.56;101068.69;5076984;27;45418;-68
2021/09/27 05:29:13;;;;;;;;;4.00;4.00;;;;;26.08;45.49;101066.03;5075993;28;45406;-67
2021/09/27 05:31:48;;;;;;;;;5.50;5.25;;;;;26.07;45.50;101067.88;5074475;27;45442;-68
2021/09/27 05:34:41;;;;;;;;;4.25;4.25;;;;;26.07;45.39;101065.19;5075489;27;46526;-67
2021/09/27 05:37:21;;;;;;;;;3.00;3.00;;;;;26.07;45.61;101065.19;5075749;27;45483;-67
2021/09/27 05:39:58;;;;;;;;;3.25;3.25;;;;;26.03;45.79;101049.81;5075410;27;45528;-67
2021/09/27 05:42:29;;;;;;;;;3.75;3.75;;;;;26.06;45.87;101052.91;5075812;27;45341;-66
2021/09/27 05:45:12;;;;;;;;;4.00;4.00;;;;;26.07;45.56;101049.19;5077036;27;46938;-67
2021/09/27 05:47:52;;;;;;;;;4.00;4.00;;;;;26.06;45.74;101054.75;5075639;28;47834;-67
2021/09/27 05:50:41;;;;;;;;;4.25;4.25;;;;;26.07;45.63;101053.75;5073519;28;45357;-66
2021/09/27 05:53:12;;;;;;;;;3.00;3.00;;;;;26.05;45.60;101048.59;5076146;28;45522;-67
2021/09/27 05:55:56;;;;;;;;;3.25;3.25;;;;;26.05;45.47;101047.75;5073374;28;45499;-67
2021/09/27 05:58:43;;;;;;;;;3.50;2.00;;;;;26.05;45.43;101040.59;5073706;28;45430;-68
2021/09/27 06:01:27;;;;;;;;;3.25;3.25;;;;;26.06;45.52;101044.91;5074592;27;45501;-67
2021/09/27 06:04:01;;;;;;;;;4.00;3.00;;;;;26.05;45.72;101053.91;5069913;28;45524;-67
2021/09/27 06:06:32;;;;;;;;;3.00;3.00;;;;;26.05;45.38;101039.75;5076582;27;46217;-67
2021/09/27 06:09:19;;;;;;;;;3.00;3.00;;;;;26.05;45.94;101043.25;5075724;27;45934;-67
2021/09/27 06:12:04;;;;;;;;;3.00;3.00;;;;;26.06;45.92;101038.75;5074372;28;45536;-67
2021/09/27 06:14:32;;;;;;;;;4.50;4.50;;;;;26.06;45.79;101044.91;5075566;27;45456;-67
2021/09/27 06:17:25;;;;;;;;;3.00;3.00;;;;;26.07;46.03;101051.88;5075609;28;46284;-67
2021/09/27 06:20:06;;;;;;;;;2.25;2.25;;;;;26.07;45.79;101043.88;5075639;28;45293;-67
2021/09/27 06:22:58;;;;;;;;;3.25;3.25;;;;;26.09;45.81;101041.03;5074837;27;45455;-67
2021/09/27 06:25:31;;;;;;;;;4.25;3.00;;;;;26.08;46.29;101039.38;5074368;27;45541;-66
2021/09/27 06:28:34;;;;;;;;;4.00;4.00;;;;;26.08;45.90;101039.38;5074920;27;46357;-66
2021/09/27 06:31:24;;;;;;;;;4.00;2.67;;;;;26.09;45.81;101034.84;5058020;28;45450;-67
2021/09/27 06:34:00;;;;;;;;;4.50;4.50;;;;;26.00;46.01;101019.06;5072053;28;45470;-67
2021/09/27 06:36:29;;;;;;;;;3.25;3.00;;;;;26.01;45.78;101018.03;5070937;28;45530;-66
2021/09/27 06:38:58;;;;;;;;;5.00;5.00;;;;;26.08;46.07;101026.03;5064345;28;46231;-72
2021/09/27 06:41:26;;;;;;;;;4.67;4.00;;;;;26.09;45.52;101032.19;5076129;27;45318;-67
2021/09/27 06:43:52;;;;;;;;;4.50;4.50;;;;;26.10;46.15;101039.19;5073279;28;45414;-68
2021/09/27 06:46:19;;;;;;;;;3.25;3.25;;;;;26.10;45.92;101033.84;5073115;27;45504;-69
2021/09/27 06:48:45;;;;;;;;;4.00;4.00;;;;;26.09;46.08;101041.03;5074742;27;46032;-69
2021/09/27 06:51:11;;;;;;;;;3.75;3.75;;;;;26.05;45.96;101029.94;5074841;27;45628;-68
2021/09/27 06:53:36;;;;;;;;;4.00;3.00;;;;;26.09;46.14;101030.34;5074828;27;45386;-68
2021/09/27 06:56:02;;;;;;;;;2.75;2.75;;;;;26.09;45.72;101025.03;5076743;27;45312;-68
2021/09/27 06:58:27;;;;;;;;;3.00;3.00;;;;;26.07;46.26;101022.53;5074514;27;45529;-68
2021/09/27 07:00:54;;;;;;;;;4.75;3.75;;;;;26.09;46.01;101027.69;5074389;28;45603;-68
2021/09/27 07:03:20;;;;;;;;;2.50;2.50;;;;;26.02;46.04;101005.53;5074832;27;45544;-71
2021/09/27 07:05:46;;;;;;;;;3.00;3.00;;;;;26.08;46.05;100999.38;5074664;27;45587;-69
2021/09/27 07:08:12;;;;;;;;;3.00;3.00;;;;;26.08;45.97;101018.03;5075649;28;46074;-68
2021/09/27 07:10:37;;;;;;;;;3.00;2.25;;;;;26.04;46.02;100988.31;5074416;27;45353;-68
2021/09/27 07:13:03;;;;;;;;;3.00;3.00;;;;;26.07;46.32;100990.53;5072759;27;45825;-68
2021/09/27 07:15:28;;;;;;;;;2.00;2.00;;;;;25.82;45.55;100943.19;5073242;28;45377;-68
2021/09/27 07:17:54;;;;;;;;;3.00;3.00;;;;;26.06;46.03;100991.59;5073250;28;45433;-68
2021/09/27 07:20:22;;;;;;;;;3.75;3.25;;;;;26.04;46.27;100968.81;5076020;27;45379;-65
2021/09/27 07:22:48;;;;;;;;;3.00;3.00;;;;;26.06;46.03;100978.25;5074441;28;45425;-68
2021/09/27 07:25:15;;;;;;;;;5.00;2.75;;;;;26.07;45.65;100976.41;5068280;28;45365;-68
2021/09/27 07:27:40;;;;;;;;;2.00;2.00;;;;;26.01;46.04;100962.06;5074013;27;46291;-68
2021/09/27 07:30:08;;;;;;;;;2.33;2.33;;;;;26.06;46.06;100967.59;5074458;27;45485;-68
2021/09/27 07:32:34;;;;;;;;;4.00;3.75;;;;;26.06;45.75;100978.25;5074658;27;45305;-68
2021/09/27 07:34:59;;;;;;;;;3.50;3.50;;;;;26.06;45.79;100991.59;5075659;28;45308;-68
2021/09/27 07:37:24;;;;;;;;;3.00;3.00;;;;;26.06;45.77;100988.09;5073658;27;45736;-68
2021/09/27 07:39:50;;;;;;;;;3.00;3.00;;;;;26.05;46.02;100973.13;5074075;27;45534;-68
2021/09/27 07:42:15;;;;;;;;;2.00;2.00;;;;;26.05;46.27;100976.59;5074233;27;45533;-67
2021/09/27 07:44:41;;;;;;;;;2.00;2.00;;;;;26.05;46.03;100983.78;5074013;27;45603;-68
2021/09/27 07:47:07;;;;;;;;;3.50;3.50;;;;;26.02;45.85;100963.69;5075637;28;46821;-68
2021/09/27 07:49:32;;;;;;;;;3.67;2.00;;;;;26.05;46.17;100968.59;5073844;27;47925;-68
2021/09/27 07:51:58;;;;;;;;;2.00;2.00;;;;;26.05;45.95;100949.13;5073749;27;45467;-67
2021/09/27 07:54:24;;;;;;;;;4.67;2.00;;;;;26.05;46.21;100967.78;5074747;27;45394;-68
2021/09/27 07:56:50;;;;;;;;;2.00;2.00;;;;;26.05;46.10;100960.59;5060048;28;45578;-68
2021/09/27 07:59:16;;;;;;;;;2.67;2.67;;;;;26.05;45.97;100960.59;5078967;28;45423;-68
2021/09/27 08:01:41;;;;;;;;;3.00;3.00;;;;;26.03;46.31;100957.34;5077387;27;45607;-68
2021/09/27 08:04:09;;;;;;;;;2.00;2.00;;;;;26.06;45.97;100959.59;5075669;28;45471;-68
2021/09/27 08:06:34;;;;;;;;;2.00;2.00;;;;;26.03;45.84;100944.00;5074605;28;46200;-68
2021/09/27 08:09:00;;;;;;;;;2.00;2.00;;;;;26.05;45.81;100947.28;5077147;27;45456;-68
2021/09/27 08:11:25;;;;;;;;;1.00;1.00;;;;;26.03;46.12;100936.00;5078755;27;45385;-68
2021/09/27 08:13:50;;;;;;;;;1.50;1.50;;;;;26.07;46.26;100963.88;5077940;28;45299;-68
2021/09/27 08:16:17;;;;;;;;;4.33;3.00;;;;;26.08;45.92;100954.06;5077075;27;45954;-68
2021/09/27 08:18:42;;;;;;;;;2.00;2.00;;;;;26.08;45.68;100964.72;5077582;27;45402;-67
2021/09/27 08:21:12;;;;;;;;;2.00;2.00;;;;;26.09;46.15;100966.38;5076805;27;45786;-68
2021/09/27 08:23:37;;;;;;;;;3.67;3.67;;;;;26.09;46.15;100946.88;5077232;27;45483;-68
2021/09/27 08:26:03;;;;;;;;;4.00;2.75;;;;;26.09;46.07;100930.88;5078732;27;46110;-68
2021/09/27 08:28:30;;;;;;;;;3.00;2.00;;;;;26.09;45.65;100939.72;5077027;27;45595;-68
2021/09/27 08:30:59;;;;;;;;;3.00;3.00;;;;;26.10;46.09;100941.31;5075247;27;45410;-67
2021/09/27 08:33:26;;;;;;;;;3.67;2.33;;;;;26.09;46.44;100939.72;5077037;27;45542;-67
2021/09/27 08:35:53;;;;;;;;;1.33;1.33;;;;;26.09;46.19;100933.53;5076442;27;46443;-67
2021/09/27 08:38:21;;;;;;;;;2.00;2.00;;;;;26.10;45.79;100929.88;5074454;28;45400;-68
2021/09/27 08:41:14;;;;;;;;;3.33;3.00;;;;;26.10;46.00;100933.31;5075494;28;45570;-68
2021/09/27 08:43:54;;;;;;;;;2.00;2.00;;;;;26.10;45.82;100952.00;5075136;27;45508;-68
2021/09/27 08:46:33;;;;;;;;;3.00;3.00;;;;;26.10;45.93;100978.66;5074163;27;45383;-68
2021/09/27 08:49:23;;;;;;;;;3.33;2.00;;;;;26.11;45.85;100947.50;5076165;27;45440;-68
2021/09/27 08:51:49;;;;;;;;;1.00;1.00;;;;;26.10;45.85;100949.31;5076892;27;45396;-68
2021/09/27 08:54:22;;;;;;;;;4.00;2.00;;;;;26.06;46.04;100927.59;5089373;27;45449;-68
2021/09/27 08:56:53;;;;;;;;;2.00;2.00;;;;;26.11;45.67;100947.50;5058195;27;45378;-68
2021/09/27 08:59:49;;;;;;;;;2.33;2.33;;;;;26.10;46.01;100932.53;5074073;28;45398;-67
2021/09/27 09:02:39;;;;;;;;;2.00;2.00;;;;;26.12;45.73;100933.13;5078183;28;45387;-67
2021/09/27 09:05:29;;;;;;;;;2.33;2.33;;;;;26.11;45.93;100936.81;5076226;28;45527;-69
2021/09/27 09:08:09;;;;;;;;;3.00;3.00;;;;;26.02;45.99;100922.91;5077049;28;46139;-69
2021/09/27 09:10:59;;;;;;;;;1.00;1.00;;;;;26.10;45.92;100933.31;5074528;27;45296;-68
2021/09/27 09:13:32;;;;;;;;;4.67;3.00;;;;;26.10;45.79;100941.31;5076127;27;45405;-68
2021/09/27 09:16:03;;;;;;;;;3.00;3.00;;;;;26.10;45.92;100968.00;5076358;27;45532;-69
2021/09/27 09:18:33;;;;;;;;;3.33;2.67;;;;;26.09;45.86;101022.34;5075655;27;46522;-69
2021/09/27 09:21:08;;;;;;;;;2.00;2.00;;;;;26.10;45.81;101028.50;5074161;27;45339;-69
2021/09/27 09:23:40;;;;;;;;;3.00;1.25;;;;;26.09;45.68;101059.69;5076648;27;45408;-67
2021/09/27 09:26:11;;;;;;;;;3.00;3.00;;;;;26.08;45.87;101058.03;5076473;28;45667;-68
2021/09/27 09:28:38;;;;;;;;;1.33;1.00;;;;;26.09;45.90;101070.34;5075955;27;46927;-69
2021/09/27 09:31:17;;;;;;;;;2.00;2.00;;;;;26.09;45.93;101081.00;5075901;27;45421;-68
2021/09/27 09:33:44;;;;;;;;;2.75;2.00;;;;;26.10;46.08;101095.19;5075673;27;45410;-68
2021/09/27 09:36:13;;;;;;;;;1.25;1.25;;;;;26.10;46.08;101103.16;5076072;27;45531;-68
2021/09/27 09:38:41;;;;;;;;;2.00;2.00;;;;;26.09;45.66;101110.34;5075830;27;47109;-68
2021/09/27 09:41:08;;;;;;;;;2.00;1.75;;;;;26.11;45.81;101131.47;5077647;28;45278;-68
2021/09/27 09:43:37;;;;;;;;;2.00;2.00;;;;;26.09;45.81;101137.00;5075905;28;45491;-68
2021/09/27 09:46:14;;;;;;;;;2.67;2.00;;;;;26.10;45.86;101145.84;5075695;27;45513;-68
2021/09/27 09:49:05;;;;;;;;;2.00;2.00;;;;;26.11;45.78;101150.94;5074138;28;46009;-68
2021/09/27 09:51:49;;;;;;;;;1.00;1.00;;;;;26.10;45.87;101162.63;5075276;28;45304;-68
2021/09/27 09:54:25;;;;;;;;;2.00;2.00;;;;;26.10;45.99;101167.97;5075894;27;45596;-68
2021/09/27 09:57:16;;;;;;;;;2.00;2.00;;;;;26.12;45.50;101178.44;5059470;28;45481;-68
2021/09/27 09:59:56;;;;;;;;;3.00;1.33;;;;;26.07;45.79;101185.19;5074274;28;45584;-68
2021/09/27 10:02:23;;;;;;;;;1.33;1.00;;;;;26.06;45.37;101180.88;5073100;28;45411;-68
2021/09/27 10:05:09;;;;;;;;;2.00;2.00;;;;;26.11;45.81;101201.63;5075993;28;45525;-68
2021/09/27 10:07:44;;;;;;;;;2.33;2.00;;;;;26.12;45.56;101199.78;5075370;28;45426;-68
2021/09/27 10:10:27;;;;;;;;;3.00;1.00;;;;;26.10;45.62;101207.97;5084851;27;47354;-69
2021/09/27 10:12:52;;;;;;;;;0.50;0.50;;;;;26.12;45.43;101221.09;5075098;27;45423;-68
2021/09/27 10:15:27;;;;;;;;;1.00;1.00;;;;;26.10;45.62;101215.94;5075183;27;45521;-68
2021/09/27 10:18:19;;;;;;;;;1.00;1.00;;;;;26.11;45.88;101225.63;5058737;28;45380;-68
2021/09/27 10:21:00;;;;;;;;;4.67;2.00;;;;;26.10;45.40;101226.63;5075063;27;45469;-68
2021/09/27 10:23:42;;;;;;;;;3.00;2.00;;;;;26.10;45.59;101229.28;5073130;28;45321;-68
2021/09/27 10:26:29;;;;;;;;;2.33;2.33;;;;;26.12;45.66;101242.44;5075677;28;46968;-68
2021/09/27 10:29:10;;;;;;;;;2.00;2.00;;;;;26.11;45.65;101241.59;5076018;28;45324;-68
2021/09/27 10:31:38;;;;;;;;;1.00;1.00;;;;;26.11;45.84;101246.94;5074532;27;47185;-68
2021/09/27 10:34:13;;;;;;;;;4.33;1.33;;;;;26.12;46.01;101255.78;5074865;27;45437;-68
2021/09/27 10:36:42;;;;;;;;;1.33;1.33;;;;;26.12;45.71;101261.94;5075165;27;45512;-68
2021/09/27 10:39:11;;;;;;;;;1.00;1.00;;;;;26.13;45.54;101276.06;5073224;27;45283;-68
2021/09/27 10:41:58;;;;;;;;;2.00;2.00;;;;;26.13;45.46;101274.22;5075069;27;45459;-68
2021/09/27 10:44:34;;;;;;;;;1.00;1.00;;;;;26.10;45.45;101277.28;5072337;28;45264;-69
2021/09/27 10:47:28;;;;;;;;;2.00;2.00;;;;;26.13;45.51;101281.41;5076420;28;45911;-68
2021/09/27 10:50:10;;;;;;;;;1.00;1.00;;;;;26.14;45.83;101291.88;5073628;28;45558;-68
2021/09/27 10:52:43;;;;;;;;;3.33;1.00;;;;;26.13;45.51;101290.22;5074471;27;45464;-68
2021/09/27 10:55:27;;;;;;;;;1.00;1.00;;;;;26.14;45.53;101301.72;5074696;27;45285;-68
2021/09/27 10:57:59;;;;;;;;;1.00;1.00;;;;;26.15;45.62;101301.50;5074695;27;45651;-66
2021/09/27 11:00:50;;;;;;;;;2.50;2.00;;;;;26.16;45.71;101305.84;5074128;27;45618;-68
2021/09/27 11:03:41;;;;;;;;;2.00;1.00;;;;;26.16;45.33;101313.00;5074513;27;46160;-68
2021/09/27 11:06:23;;;;;;;;;1.67;1.67;;;;;26.18;45.52;101310.97;5059067;28;45304;-68
2021/09/27 11:09:07;;;;;;;;;3.00;2.00;;;;;26.20;45.35;101302.78;5074536;27;45350;-67
2021/09/27 11:11:33;;;;;;;;;2.00;2.00;;;;;26.20;46.09;101300.94;5105792;27;45435;-68
2021/09/27 11:14:18;;;;;;;;;1.00;1.00;;;;;26.22;45.52;101314.06;5075509;28;47246;-68
2021/09/27 11:16:46;;;;;;;;;1.00;1.00;;;;;26.24;45.06;101315.53;5074437;27;45304;-67
2021/09/27 11:19:35;;;;;;;;;1.00;1.00;;;;;26.24;45.28;101309.34;5072515;28;45384;-67
2021/09/27 11:22:12;;;;;;;;;1.00;1.00;;;;;26.25;45.58;101308.34;5074045;28;45310;-68
2021/09/27 11:24:51;;;;;;;;;1.67;1.67;;;;;26.24;45.11;101315.53;5074293;28;46124;-68
2021/09/27 11:27:16;;;;;;;;;1.00;1.00;;;;;26.26;45.67;101324.13;5074178;27;45448;-68
2021/09/27 11:29:47;;;;;;;;;0.33;0.33;;;;;26.27;45.25;101314.31;5074037;27;45434;-68
2021/09/27 11:32:17;;;;;;;;;2.00;1.33;;;;;26.13;45.19;101295.56;5076193;28;45392;-67
2021/09/27 11:34:53;;;;;;;;;2.00;2.00;;;;;26.29;45.25;101330.91;5073927;27;47180;-68
2021/09/27 11:37:44;;;;;;;;;2.00;1.00;;;;;26.30;45.04;101337.91;5074184;27;45504;-68
2021/09/27 11:40:21;;;;;;;;;1.50;0.75;;;;;26.31;45.10;101347.53;5012671;28;45379;-67
2021/09/27 11:42:56;;;;;;;;;0.33;0.33;;;;;26.32;45.08;101345.72;5006697;28;45509;-67
2021/09/27 11:45:24;;;;;;;;;1.00;1.00;;;;;26.33;44.93;101356.19;4994609;28;47321;-67
2021/09/27 11:48:03;;;;;;;;;1.00;1.00;;;;;26.33;44.80;101376.72;4995631;28;45509;-67
2021/09/27 11:50:34;;;;;;;;;1.67;1.00;;;;;26.33;45.45;101363.38;4996603;28;45529;-67
2021/09/27 11:53:11;;;;;;;;;1.67;1.00;;;;;26.32;45.38;101365.22;5008636;28;45655;-66
2021/09/27 11:55:42;;;;;;;;;0.00;0.00;;;;;26.33;45.14;101374.88;5002632;28;47219;-68
2021/09/27 11:58:26;;;;;;;;;1.00;1.00;;;;;26.33;45.25;101374.88;5001128;28;45281;-68
2021/09/27 12:01:02;;;;;;;;;3.00;1.33;;;;;26.33;45.25;101377.53;5012912;28;45392;-69
2021/09/27 12:03:52;;;;;;;;;1.00;1.00;;;;;26.32;44.99;101375.06;5007979;28;45434;-68
2021/09/27 12:06:31;;;;;;;;;2.00;1.00;;;;;26.34;45.05;101378.34;5011588;28;45605;-68
2021/09/27 12:09:06;;;;;;;;;1.00;1.00;;;;;26.34;45.14;101383.66;4997474;28;45377;-68